Fullerville, New York
Current Conditions -  °F | °C
As of 6:08 PM on Thursday 27 Nov 2014 (Local Time) from KGTB Reporting Station
Light Snow Light Snow  
Wind Chill: 25°   Ceiling: 1600
Heat Index: 25°   Visibility: 2mi
Dew Point: 25°   Wind: 1mph
Humidity: 100%   Direction: 280°W
Pressure: 30.03"   Gusts: NA
Location:  44.3309°N, 75.4775°W
Report Text: KGTB 272308Z AUTO 28001KT 2SM -SN BR OVC016 M04/M04 A3003 RMK AO2 VIS 2V2 1/2
Loading
Personal Weather Stations






























Interactive Weather Map New forecast layout! Learn more

10-Day Weather Forecast

Advertisements
Track Severe Weather on mobile